sim
Sign-in with your pilot id or email,
or register
Callsign
Passwort

Schedule Details

Flight Number: OEO8575
Departure: Belfast International Airport (EGAA) at 12:00
Arrival: Munich Airport (EDDM) at 14:25

Weather Information
Getting current METAR information for EGAA 210650Z 24005KT 2400 BR BKN002 10/10 Q1017
Getting current METAR information for EDDM 210650Z VRB01KT CAVOK 11/11 Q1017 BECMG 09005KT

Schedule Frequency

Route Map